createdAt,value
2019-05-14T00:00:59.066Z,9.50
2019-05-14T00:03:31.134Z,9.50
2019-05-14T00:06:02.248Z,9.50
2019-05-14T00:08:32.886Z,9.50
2019-05-14T00:11:03.063Z,9.50
2019-05-14T00:13:33.260Z,9.50
2019-05-14T00:16:03.430Z,9.60
2019-05-14T00:18:33.624Z,9.40
2019-05-14T00:21:03.866Z,9.40
2019-05-14T00:23:34.068Z,9.50
2019-05-14T00:26:04.307Z,9.40
2019-05-14T00:28:51.745Z,9.10
2019-05-14T00:31:21.972Z,9.30
2019-05-14T00:33:52.234Z,9.30
2019-05-14T00:36:22.421Z,9.20
2019-05-14T00:38:52.618Z,9.10
2019-05-14T00:41:22.785Z,9.20
2019-05-14T00:44:10.579Z,9.10
2019-05-14T00:46:41.143Z,8.90
2019-05-14T00:49:11.865Z,9.10
2019-05-14T00:51:42.352Z,9.00
2019-05-14T00:54:12.536Z,8.60
2019-05-14T00:56:42.711Z,8.60
2019-05-14T00:59:12.991Z,8.60
2019-05-14T01:01:43.155Z,8.70
2019-05-14T01:04:13.502Z,8.50
2019-05-14T01:06:43.679Z,8.60
2019-05-14T01:09:14.152Z,8.80
2019-05-14T01:11:44.342Z,8.80
2019-05-14T01:14:14.747Z,8.80
2019-05-14T01:16:44.954Z,8.80
2019-05-14T01:19:15.151Z,8.80
2019-05-14T01:21:45.423Z,8.70
2019-05-14T01:24:15.613Z,8.90
2019-05-14T01:26:45.811Z,8.90
2019-05-14T01:29:16.106Z,8.80
2019-05-14T01:31:46.303Z,8.80
2019-05-14T01:34:16.513Z,8.80
2019-05-14T01:36:46.759Z,8.70
2019-05-14T01:39:17.023Z,8.70
2019-05-14T01:41:47.219Z,8.60
2019-05-14T01:44:37.428Z,8.50
2019-05-14T01:47:07.591Z,8.40
2019-05-14T01:49:37.806Z,8.50
2019-05-14T01:52:07.984Z,8.40
2019-05-14T01:54:38.180Z,8.40
2019-05-14T01:57:08.683Z,8.50
2019-05-14T01:59:55.659Z,8.50
2019-05-14T02:02:25.855Z,8.50
2019-05-14T02:04:56.130Z,8.50
2019-05-14T02:07:26.334Z,8.40
2019-05-14T02:09:56.579Z,8.40
2019-05-14T02:15:02.270Z,8.40
2019-05-14T02:17:32.474Z,8.30
2019-05-14T02:20:03.227Z,8.30
2019-05-14T02:22:33.432Z,8.30
2019-05-14T02:25:03.629Z,8.40
2019-05-14T02:27:35.045Z,8.40
2019-05-14T02:30:07.127Z,8.30
2019-05-14T02:32:40.414Z,8.10
2019-05-14T02:35:22.361Z,8.10
2019-05-14T02:37:52.550Z,8.00
2019-05-14T02:40:22.835Z,8.00
2019-05-14T02:42:53.020Z,8.00
2019-05-14T02:45:23.291Z,8.10
2019-05-14T02:47:53.587Z,8.10
2019-05-14T02:50:24.020Z,8.10
2019-05-14T02:52:54.213Z,8.10
2019-05-14T02:55:24.463Z,8.20
2019-05-14T02:57:54.679Z,8.30
2019-05-14T03:00:24.949Z,8.20
2019-05-14T03:02:55.240Z,8.10
2019-05-14T03:05:25.752Z,8.10
2019-05-14T03:07:59.036Z,8.10
2019-05-14T03:10:30.235Z,8.10
2019-05-14T03:12:59.995Z,8.10
2019-05-14T03:15:30.255Z,8.10
2019-05-14T03:18:00.577Z,8.00
2019-05-14T03:20:30.747Z,7.90
2019-05-14T03:23:08.007Z,7.90
2019-05-14T03:25:32.888Z,7.90
2019-05-14T03:28:03.102Z,7.90
2019-05-14T03:30:33.350Z,7.90
2019-05-14T03:33:03.744Z,7.80
2019-05-14T03:35:42.495Z,7.80
2019-05-14T03:38:05.845Z,7.80
2019-05-14T03:40:40.005Z,7.80
2019-05-14T03:43:09.660Z,7.80
2019-05-14T03:45:39.834Z,7.80
2019-05-14T03:48:10.588Z,7.70
2019-05-14T03:50:41.171Z,7.80
2019-05-14T03:53:11.761Z,7.70
2019-05-14T03:55:41.878Z,7.70
2019-05-14T03:58:12.100Z,7.70
2019-05-14T04:04:14.009Z,7.60
2019-05-14T04:06:44.589Z,7.60
2019-05-14T04:09:15.202Z,7.60
2019-05-14T04:11:45.404Z,7.50
2019-05-14T04:14:15.851Z,7.60
2019-05-14T04:17:01.598Z,7.70
2019-05-14T04:19:19.016Z,7.70
2019-05-14T04:21:50.152Z,7.80
2019-05-14T04:24:21.671Z,7.90
2019-05-14T04:27:02.145Z,7.90
2019-05-14T04:30:00.832Z,8.00
2019-05-14T04:32:31.597Z,8.20
2019-05-14T04:35:01.885Z,8.20
2019-05-14T04:37:32.242Z,8.30
2019-05-14T04:40:02.570Z,8.40
2019-05-14T04:42:32.779Z,8.70
2019-05-14T04:45:05.713Z,9.10
2019-05-14T04:47:37.398Z,9.60
2019-05-14T04:50:10.210Z,9.80
2019-05-14T04:52:40.256Z,10.10
2019-05-14T04:55:11.303Z,10.40
2019-05-14T04:57:41.778Z,10.80
2019-05-14T05:00:12.695Z,11.20
2019-05-14T05:02:43.361Z,11.70
2019-05-14T05:05:13.541Z,12.60
2019-05-14T05:07:43.753Z,14.00
2019-05-14T05:10:14.003Z,15.40
2019-05-14T05:12:44.203Z,16.30
2019-05-14T05:15:14.460Z,16.70
2019-05-14T05:17:51.724Z,17.40
2019-05-14T05:20:19.133Z,18.40
2019-05-14T05:22:48.683Z,19.50
2019-05-14T05:25:19.029Z,20.70
2019-05-14T05:27:49.536Z,21.50
2019-05-14T05:30:20.556Z,21.40
2019-05-14T05:32:50.754Z,20.40
2019-05-14T05:35:21.004Z,20.20
2019-05-14T05:37:51.666Z,19.60
2019-05-14T05:40:21.888Z,19.90
2019-05-14T05:42:52.082Z,20.30
2019-05-14T05:45:22.347Z,20.60
2019-05-14T05:47:57.365Z,19.60
2019-05-14T05:50:24.523Z,18.20
2019-05-14T05:52:54.741Z,17.50
2019-05-14T05:55:24.911Z,17.50
2019-05-14T05:57:55.195Z,17.00
2019-05-14T06:00:49.972Z,16.90
2019-05-14T06:03:20.989Z,16.20
2019-05-14T06:08:55.373Z,16.80
2019-05-14T06:11:25.759Z,16.50
2019-05-14T06:13:55.974Z,16.40
2019-05-14T06:16:28.818Z,16.50
2019-05-14T06:18:58.818Z,17.10
2019-05-14T06:21:29.435Z,18.00
2019-05-14T06:24:02.710Z,18.90
2019-05-14T06:26:31.547Z,19.90
2019-05-14T06:29:01.807Z,20.10
2019-05-14T06:31:32.007Z,21.00
2019-05-14T06:34:03.165Z,21.00
2019-05-14T06:36:33.427Z,21.30
2019-05-14T06:39:05.387Z,22.30
2019-05-14T06:41:35.625Z,22.90
2019-05-14T06:44:05.799Z,22.30
2019-05-14T06:46:36.030Z,22.00
2019-05-14T06:49:06.207Z,20.90
2019-05-14T06:51:39.310Z,19.60
2019-05-14T06:54:29.269Z,18.80
2019-05-14T06:57:00.387Z,18.00
2019-05-14T06:59:30.618Z,18.20
2019-05-14T07:02:00.829Z,20.00
2019-05-14T07:04:31.016Z,21.60
2019-05-14T07:07:01.216Z,21.10
2019-05-14T07:09:31.470Z,20.40
2019-05-14T07:12:01.670Z,21.90
2019-05-14T07:14:32.828Z,21.60
2019-05-14T07:17:03.024Z,21.70
2019-05-14T07:19:33.211Z,23.70
2019-05-14T07:22:03.420Z,23.60
2019-05-14T07:24:36.841Z,23.40
2019-05-14T07:27:05.502Z,23.20
2019-05-14T07:29:35.685Z,22.50
2019-05-14T07:32:08.748Z,21.30
2019-05-14T07:34:38.863Z,20.40
2019-05-14T07:37:09.650Z,21.00
2019-05-14T07:39:40.261Z,21.40
2019-05-14T07:42:10.576Z,21.20
2019-05-14T07:44:41.068Z,22.10
2019-05-14T07:47:11.500Z,22.40
2019-05-14T07:49:41.677Z,22.70
2019-05-14T07:52:11.887Z,22.40
2019-05-14T07:55:01.520Z,22.70
2019-05-14T07:57:31.982Z,22.80
2019-05-14T08:00:03.242Z,22.50
2019-05-14T08:02:33.714Z,22.10
2019-05-14T08:05:05.626Z,21.90
2019-05-14T08:07:35.823Z,21.80
2019-05-14T08:10:09.048Z,20.50
2019-05-14T08:12:39.512Z,19.90
2019-05-14T08:15:17.661Z,19.90
2019-05-14T08:17:42.110Z,20.20
2019-05-14T08:20:12.401Z,21.30
2019-05-14T08:22:42.659Z,22.00
2019-05-14T08:25:12.926Z,21.90
2019-05-14T08:27:43.146Z,21.10
2019-05-14T08:30:13.351Z,20.20
2019-05-14T08:32:43.750Z,19.90
2019-05-14T08:35:14.019Z,19.60
2019-05-14T08:37:44.218Z,19.00
2019-05-14T08:40:16.386Z,18.80
2019-05-14T08:42:46.404Z,18.70
2019-05-14T08:45:18.833Z,18.30
2019-05-14T08:47:48.510Z,18.10
2019-05-14T08:50:19.389Z,18.10
2019-05-14T08:52:49.595Z,17.90
2019-05-14T08:55:19.816Z,17.60
2019-05-14T08:57:50.138Z,17.50
2019-05-14T09:00:20.828Z,17.50
2019-05-14T09:02:51.023Z,17.50
2019-05-14T09:05:21.231Z,17.60
2019-05-14T09:07:51.473Z,17.80
2019-05-14T09:10:21.857Z,18.20
2019-05-14T09:12:52.068Z,18.60
2019-05-14T09:15:22.386Z,18.90
2019-05-14T09:17:52.588Z,19.20
2019-05-14T09:20:22.831Z,19.10
2019-05-14T09:22:53.099Z,19.00
2019-05-14T09:25:23.287Z,19.50
2019-05-14T09:27:53.544Z,19.50
2019-05-14T09:30:23.935Z,20.00
2019-05-14T09:32:54.394Z,20.40
2019-05-14T09:35:24.589Z,20.60
2019-05-14T09:37:54.776Z,20.70
2019-05-14T09:40:24.972Z,20.80
2019-05-14T09:42:58.498Z,21.10
2019-05-14T09:45:28.251Z,21.30
2019-05-14T09:47:58.578Z,21.20
2019-05-14T09:50:29.218Z,20.90
2019-05-14T09:53:01.423Z,21.20
2019-05-14T09:55:31.710Z,21.50
2019-05-14T09:58:01.992Z,22.10
2019-05-14T10:00:32.725Z,22.60
2019-05-14T10:03:03.077Z,22.70
2019-05-14T10:05:33.357Z,23.80
2019-05-14T10:08:03.679Z,23.70
2019-05-14T10:10:33.885Z,23.40
2019-05-14T10:13:04.115Z,24.00
2019-05-14T10:15:34.310Z,24.10
2019-05-14T10:18:22.539Z,24.30
2019-05-14T10:20:52.746Z,24.90
2019-05-14T10:23:22.920Z,24.40
2019-05-14T10:25:53.123Z,25.00
2019-05-14T10:28:23.512Z,24.90
2019-05-14T10:30:53.783Z,25.00
2019-05-14T10:33:23.967Z,24.50
2019-05-14T10:35:54.574Z,23.80
2019-05-14T10:38:24.823Z,23.60
2019-05-14T10:40:55.028Z,23.30
2019-05-14T10:43:25.202Z,22.80
2019-05-14T10:45:57.878Z,22.70
2019-05-14T10:48:29.172Z,22.80
2019-05-14T10:51:03.428Z,23.80
2019-05-14T10:53:32.395Z,24.90
2019-05-14T10:56:02.591Z,26.00
2019-05-14T10:58:32.772Z,25.50
2019-05-14T11:01:02.970Z,25.40
2019-05-14T11:03:33.153Z,25.10
2019-05-14T11:06:03.352Z,25.40
2019-05-14T11:08:34.555Z,24.60
2019-05-14T11:11:05.347Z,25.70
2019-05-14T11:13:35.679Z,25.40
2019-05-14T11:16:08.409Z,25.10
2019-05-14T11:18:39.898Z,25.60
2019-05-14T11:21:24.830Z,25.90
2019-05-14T11:23:41.559Z,26.50
2019-05-14T11:26:11.786Z,27.50
2019-05-14T11:28:42.143Z,27.40
2019-05-14T11:31:12.370Z,26.00
2019-05-14T11:33:42.558Z,25.60
2019-05-14T11:36:12.831Z,25.40
2019-05-14T11:38:42.999Z,24.70
2019-05-14T11:41:13.319Z,24.10
2019-05-14T11:43:43.565Z,24.30
2019-05-14T11:46:14.125Z,24.60
2019-05-14T11:48:44.369Z,24.40
2019-05-14T11:51:54.777Z,24.50
2019-05-14T11:53:59.550Z,24.60
2019-05-14T11:56:29.751Z,24.10
2019-05-14T11:58:59.928Z,24.10
2019-05-14T12:01:30.204Z,24.10
2019-05-14T12:04:00.383Z,23.40
2019-05-14T12:06:30.651Z,23.20
2019-05-14T12:09:01.232Z,23.40
2019-05-14T12:11:32.923Z,24.00
2019-05-14T12:14:03.244Z,23.10
2019-05-14T12:16:33.515Z,22.50
2019-05-14T12:19:03.695Z,22.40
2019-05-14T12:21:33.923Z,22.40
2019-05-14T12:24:06.406Z,22.70
2019-05-14T12:26:38.655Z,22.90
2019-05-14T12:29:10.061Z,23.10
2019-05-14T12:31:40.015Z,23.50
2019-05-14T12:34:10.149Z,24.00
2019-05-14T12:36:40.463Z,23.70
2019-05-14T12:39:10.715Z,23.60
2019-05-14T12:41:40.986Z,23.00
2019-05-14T12:44:11.170Z,22.40
2019-05-14T12:46:41.373Z,22.20
2019-05-14T12:49:11.859Z,21.90
2019-05-14T12:51:42.788Z,22.00
2019-05-14T12:54:13.690Z,21.90
2019-05-14T12:56:43.897Z,21.80
2019-05-14T12:59:14.075Z,22.00
2019-05-14T13:01:44.294Z,22.80
2019-05-14T13:04:14.466Z,22.60
2019-05-14T13:06:44.704Z,22.10
2019-05-14T13:09:18.228Z,21.70
2019-05-14T13:11:48.036Z,21.30
2019-05-14T13:14:17.617Z,21.40
2019-05-14T13:16:48.608Z,21.50
2019-05-14T13:19:18.994Z,22.10
2019-05-14T13:22:07.054Z,22.70
2019-05-14T13:24:21.232Z,22.20
2019-05-14T13:26:51.439Z,22.60
2019-05-14T13:29:21.675Z,23.50
2019-05-14T13:31:51.985Z,23.20
2019-05-14T13:34:40.731Z,23.10
2019-05-14T13:37:11.066Z,22.70
2019-05-14T13:39:41.256Z,22.90
2019-05-14T13:42:12.148Z,22.40
2019-05-14T13:44:42.359Z,22.20
2019-05-14T13:47:12.680Z,21.80
2019-05-14T13:49:43.031Z,21.90
2019-05-14T13:52:13.287Z,21.60
2019-05-14T13:54:43.531Z,21.80
2019-05-14T13:57:13.874Z,21.80
2019-05-14T13:59:44.811Z,21.30
2019-05-14T14:02:15.215Z,20.80
2019-05-14T14:04:45.427Z,20.90
2019-05-14T14:07:15.617Z,20.30
2019-05-14T14:09:45.890Z,20.90
2019-05-14T14:12:16.142Z,21.50
2019-05-14T14:14:49.089Z,21.60
2019-05-14T14:17:18.694Z,21.70
2019-05-14T14:19:48.958Z,21.50
2019-05-14T14:22:19.719Z,21.50
2019-05-14T14:24:50.080Z,21.20
2019-05-14T14:27:20.457Z,20.90
2019-05-14T14:29:51.128Z,21.20
2019-05-14T14:32:21.128Z,21.30
2019-05-14T14:34:51.654Z,21.50
2019-05-14T14:37:21.838Z,22.20
2019-05-14T14:39:52.042Z,22.00
2019-05-14T14:42:22.264Z,21.50
2019-05-14T14:44:52.520Z,21.00
2019-05-14T14:47:22.731Z,21.20
2019-05-14T14:49:53.032Z,21.40
2019-05-14T14:52:23.303Z,21.30
2019-05-14T14:55:12.190Z,21.00
2019-05-14T14:57:45.743Z,21.10
2019-05-14T15:00:14.812Z,21.40
2019-05-14T15:02:45.097Z,21.20
2019-05-14T15:05:15.569Z,21.50
2019-05-14T15:07:49.211Z,21.30
2019-05-14T15:10:19.329Z,21.50
2019-05-14T15:12:50.140Z,22.00
2019-05-14T15:15:20.407Z,22.00
2019-05-14T15:17:50.940Z,22.10
2019-05-14T15:20:21.440Z,22.40
2019-05-14T15:22:52.108Z,22.40
2019-05-14T15:25:22.481Z,21.40
2019-05-14T15:27:52.785Z,21.10
2019-05-14T15:30:23.002Z,21.10
2019-05-14T15:32:53.345Z,20.60
2019-05-14T15:35:23.613Z,20.80
2019-05-14T15:37:54.275Z,21.10
2019-05-14T15:40:24.652Z,21.70
2019-05-14T15:42:55.020Z,22.10
2019-05-14T15:45:25.268Z,21.60
2019-05-14T15:47:59.004Z,21.00
2019-05-14T15:50:29.262Z,20.90
2019-05-14T15:52:59.629Z,20.70
2019-05-14T15:55:29.927Z,20.60
2019-05-14T15:58:00.220Z,20.70
2019-05-14T16:00:30.492Z,20.60
2019-05-14T16:03:00.827Z,20.90
2019-05-14T16:05:31.037Z,20.80
2019-05-14T16:08:01.313Z,20.60
2019-05-14T16:10:31.819Z,20.20
2019-05-14T16:13:02.115Z,20.10
2019-05-14T16:15:32.440Z,20.30
2019-05-14T16:18:08.747Z,20.30
2019-05-14T16:20:35.632Z,20.60
2019-05-14T16:23:05.927Z,21.30
2019-05-14T16:25:38.007Z,21.90
2019-05-14T16:28:08.836Z,22.10
2019-05-14T16:30:39.857Z,21.80
2019-05-14T16:33:10.172Z,20.70
2019-05-14T16:36:01.586Z,20.60
2019-05-14T16:38:33.083Z,20.40
2019-05-14T16:41:03.282Z,20.20
2019-05-14T16:43:33.502Z,20.70
2019-05-14T16:46:03.792Z,20.50
2019-05-14T16:48:34.092Z,20.20
2019-05-14T16:51:04.334Z,20.30
2019-05-14T16:53:34.528Z,20.40
2019-05-14T16:56:04.784Z,19.90
2019-05-14T16:58:38.353Z,19.40
2019-05-14T17:01:10.539Z,19.50
2019-05-14T17:03:40.747Z,20.00
2019-05-14T17:06:10.969Z,20.30
2019-05-14T17:08:42.759Z,20.40
2019-05-14T17:11:13.087Z,20.20
2019-05-14T17:13:43.309Z,20.10
2019-05-14T17:16:13.695Z,19.20
2019-05-14T17:18:44.047Z,19.10
2019-05-14T17:21:14.320Z,19.00
2019-05-14T17:23:44.530Z,18.80
2019-05-14T17:26:14.730Z,19.00
2019-05-14T17:28:45.414Z,19.10
2019-05-14T17:31:15.410Z,19.10
2019-05-14T17:33:45.629Z,19.10
2019-05-14T17:36:15.821Z,18.90
2019-05-14T17:38:46.106Z,18.90
2019-05-14T17:41:16.295Z,18.80
2019-05-14T17:43:48.796Z,18.80
2019-05-14T17:46:19.449Z,18.70
2019-05-14T17:48:50.393Z,18.50
2019-05-14T17:51:20.977Z,18.50
2019-05-14T17:53:53.644Z,18.50
2019-05-14T17:56:23.969Z,18.40
2019-05-14T17:58:54.221Z,18.10
2019-05-14T18:01:24.554Z,18.20
2019-05-14T18:03:55.434Z,18.20
2019-05-14T18:06:28.360Z,18.10
2019-05-14T18:08:58.309Z,18.10
2019-05-14T18:11:28.944Z,17.90
2019-05-14T18:13:59.204Z,17.70
2019-05-14T18:16:29.455Z,17.60
2019-05-14T18:18:59.639Z,17.70
2019-05-14T18:21:30.012Z,17.80
2019-05-14T18:24:00.271Z,17.50
2019-05-14T18:26:30.556Z,17.40
2019-05-14T18:29:04.098Z,17.50
2019-05-14T18:31:33.050Z,17.50
2019-05-14T18:34:03.528Z,17.30
2019-05-14T18:36:34.133Z,17.40
2019-05-14T18:39:05.018Z,17.50
2019-05-14T18:41:38.716Z,17.60
2019-05-14T18:44:08.472Z,17.60
2019-05-14T18:46:39.388Z,17.50
2019-05-14T18:49:11.010Z,17.20
2019-05-14T18:51:41.563Z,17.30
2019-05-14T18:54:11.750Z,17.20
2019-05-14T18:56:42.025Z,17.10
2019-05-14T18:59:12.266Z,16.90
2019-05-14T19:01:42.495Z,17.00
2019-05-14T19:04:12.737Z,17.00
2019-05-14T19:06:42.938Z,16.90
2019-05-14T19:09:13.172Z,16.80
2019-05-14T19:11:43.700Z,16.80
2019-05-14T19:14:13.923Z,16.80
2019-05-14T19:16:44.182Z,16.80
2019-05-14T19:19:14.867Z,16.70
2019-05-14T19:22:03.340Z,16.60
2019-05-14T19:24:33.649Z,16.40
2019-05-14T19:27:03.839Z,16.40
2019-05-14T19:29:34.071Z,16.40
2019-05-14T19:32:04.288Z,16.20
2019-05-14T19:34:34.579Z,16.10
2019-05-14T19:37:04.887Z,16.10
2019-05-14T19:39:35.240Z,16.10
2019-05-14T19:42:05.476Z,16.10
2019-05-14T19:44:37.430Z,16.00
2019-05-14T19:47:07.670Z,16.10
2019-05-14T19:49:38.371Z,16.20
2019-05-14T19:52:28.283Z,16.10
2019-05-14T19:54:58.715Z,15.90
2019-05-14T19:57:29.139Z,15.80
2019-05-14T19:59:59.556Z,15.60
2019-05-14T20:02:29.804Z,15.60
2019-05-14T20:05:00.107Z,15.70
2019-05-14T20:07:30.377Z,15.80
2019-05-14T20:10:00.674Z,15.60
2019-05-14T20:12:31.190Z,15.30
2019-05-14T20:15:02.516Z,15.00
2019-05-14T20:17:32.777Z,15.00
2019-05-14T20:20:05.032Z,14.90
2019-05-14T20:22:35.295Z,14.70
2019-05-14T20:25:07.398Z,14.60
2019-05-14T20:27:38.929Z,14.60
2019-05-14T20:30:10.055Z,14.50
2019-05-14T20:32:40.311Z,14.40
2019-05-14T20:35:10.531Z,14.40
2019-05-14T20:38:20.961Z,14.20
2019-05-14T20:40:52.124Z,14.30
2019-05-14T20:43:22.303Z,14.20
2019-05-14T20:45:52.564Z,14.30
2019-05-14T20:48:22.793Z,14.10
2019-05-14T20:50:53.008Z,14.10
2019-05-14T20:53:23.838Z,14.10
2019-05-14T20:55:54.046Z,14.20
2019-05-14T20:58:24.232Z,13.90
2019-05-14T21:00:54.467Z,13.70
2019-05-14T21:03:24.676Z,13.70
2019-05-14T21:05:55.364Z,13.70
2019-05-14T21:08:25.600Z,13.70
2019-05-14T21:10:55.924Z,13.70
2019-05-14T21:13:27.844Z,13.50
2019-05-14T21:15:58.144Z,13.50
2019-05-14T21:18:35.254Z,13.60
2019-05-14T21:21:00.898Z,13.40
2019-05-14T21:23:31.365Z,13.40
2019-05-14T21:26:01.879Z,13.50
2019-05-14T21:28:31.899Z,13.50
2019-05-14T21:31:02.877Z,13.30
2019-05-14T21:33:33.188Z,13.10
2019-05-14T21:36:03.425Z,13.10
2019-05-14T21:38:51.750Z,12.90
2019-05-14T21:41:22.072Z,12.90
2019-05-14T21:43:52.520Z,13.00
2019-05-14T21:46:22.829Z,13.10
2019-05-14T21:48:53.108Z,13.00
2019-05-14T21:51:23.404Z,13.00
2019-05-14T21:53:58.767Z,12.90
2019-05-14T21:56:31.120Z,12.70
2019-05-14T21:59:01.709Z,12.70
2019-05-14T22:01:32.500Z,12.70
2019-05-14T22:04:03.211Z,12.70
2019-05-14T22:06:33.502Z,12.70
2019-05-14T22:09:08.712Z,12.60
2019-05-14T22:11:39.262Z,12.60
2019-05-14T22:14:12.627Z,12.70
2019-05-14T22:16:42.912Z,12.70
2019-05-14T22:19:13.327Z,12.80
2019-05-14T22:21:43.612Z,12.70
2019-05-14T22:24:13.954Z,12.70
2019-05-14T22:26:44.156Z,12.40
2019-05-14T22:29:14.482Z,12.60
2019-05-14T22:31:44.756Z,12.40
2019-05-14T22:34:15.152Z,12.40
2019-05-14T22:36:52.089Z,12.10
2019-05-14T22:39:23.361Z,12.20
2019-05-14T22:41:53.580Z,12.30
2019-05-14T22:44:24.039Z,12.20
2019-05-14T22:46:54.256Z,12.20
2019-05-14T22:49:24.556Z,12.40
2019-05-14T22:51:54.771Z,12.50
2019-05-14T22:54:25.136Z,12.60
2019-05-14T22:56:55.340Z,12.70
2019-05-14T22:59:28.161Z,12.60
2019-05-14T23:01:58.912Z,12.60
2019-05-14T23:04:29.409Z,12.50
2019-05-14T23:06:59.692Z,12.50
2019-05-14T23:09:29.926Z,12.50
2019-05-14T23:12:00.245Z,12.30
2019-05-14T23:14:30.860Z,12.30
2019-05-14T23:17:00.880Z,12.20
2019-05-14T23:19:31.183Z,12.20
2019-05-14T23:22:04.096Z,12.20
2019-05-14T23:24:33.450Z,12.10
2019-05-14T23:27:03.943Z,12.10
2019-05-14T23:29:34.258Z,12.00
2019-05-14T23:32:04.548Z,12.00
2019-05-14T23:34:34.840Z,12.10
2019-05-14T23:37:05.121Z,12.00
2019-05-14T23:39:35.699Z,11.90
2019-05-14T23:42:09.110Z,11.90
2019-05-14T23:44:39.664Z,11.90
2019-05-14T23:47:09.944Z,11.90
2019-05-14T23:49:40.243Z,11.80
2019-05-14T23:52:10.455Z,11.70
2019-05-14T23:54:40.799Z,11.70
2019-05-14T23:57:11.093Z,11.70
2019-05-14T23:59:41.404Z,11.70
